createdAt,value
2023-03-08T00:02:11.821Z,3.5
2023-03-08T00:07:11.822Z,3.5
2023-03-08T00:12:11.978Z,3.4
2023-03-08T00:17:11.892Z,3.4
2023-03-08T00:22:11.980Z,3.4
2023-03-08T00:27:12.040Z,3.4
2023-03-08T00:32:12.114Z,3.3
2023-03-08T00:37:12.057Z,3.3
2023-03-08T00:42:12.189Z,3.2
2023-03-08T00:47:11.952Z,3.2
2023-03-08T00:52:12.060Z,3.1
2023-03-08T00:57:11.949Z,3.1
2023-03-08T01:02:11.973Z,3.1
2023-03-08T01:07:11.955Z,3.1
2023-03-08T01:12:11.999Z,3
2023-03-08T01:17:11.965Z,3
2023-03-08T01:22:11.993Z,3
2023-03-08T01:27:11.946Z,3
2023-03-08T01:32:12.051Z,3
2023-03-08T01:37:11.964Z,2.9
2023-03-08T01:42:11.950Z,2.9
2023-03-08T01:47:11.945Z,2.8
2023-03-08T01:52:12.028Z,2.8
2023-03-08T01:57:11.950Z,2.8
2023-03-08T02:02:11.985Z,2.7
2023-03-08T02:07:11.938Z,2.7
2023-03-08T02:12:11.999Z,2.6
2023-03-08T02:17:11.948Z,2.6
2023-03-08T02:22:11.976Z,2.6
2023-03-08T02:27:11.945Z,2.6
2023-03-08T02:32:11.994Z,2.6
2023-03-08T02:37:11.957Z,2.6
2023-03-08T02:42:11.960Z,2.6
2023-03-08T02:47:11.943Z,2.6
2023-03-08T02:52:11.962Z,2.6
2023-03-08T02:57:11.927Z,2.6
2023-03-08T03:02:11.944Z,2.6
2023-03-08T03:07:11.950Z,2.6
2023-03-08T03:12:11.971Z,2.6
2023-03-08T03:17:11.949Z,2.6
2023-03-08T03:22:11.946Z,2.6
2023-03-08T03:27:11.934Z,2.6
2023-03-08T03:32:12.068Z,2.5
2023-03-08T03:37:11.996Z,2.6
2023-03-08T03:42:11.962Z,2.6
2023-03-08T03:47:11.949Z,2.6
2023-03-08T03:52:11.955Z,2.6
2023-03-08T03:57:11.938Z,2.6
2023-03-08T04:02:11.953Z,2.6
2023-03-08T04:07:11.930Z,2.6
2023-03-08T04:12:11.972Z,2.5
2023-03-08T04:17:11.988Z,2.6
2023-03-08T04:22:12.040Z,2.6
2023-03-08T04:27:12.043Z,2.6
2023-03-08T04:32:12.019Z,2.5
2023-03-08T04:37:11.952Z,2.5
2023-03-08T04:42:11.937Z,2.6
2023-03-08T04:47:11.951Z,2.6
2023-03-08T04:52:11.989Z,2.5
2023-03-08T04:57:11.962Z,2.6
2023-03-08T05:02:11.964Z,2.6
2023-03-08T05:07:11.967Z,2.6
2023-03-08T05:12:12.093Z,2.5
2023-03-08T05:17:11.967Z,2.5
2023-03-08T05:22:11.955Z,2.5
2023-03-08T05:27:11.944Z,2.5
2023-03-08T05:32:12.016Z,2.4
2023-03-08T05:37:11.934Z,2.4
2023-03-08T05:42:11.966Z,2.4
2023-03-08T05:47:11.935Z,2.4
2023-03-08T05:52:11.958Z,2.4
2023-03-08T05:57:11.935Z,2.4
2023-03-08T06:02:11.963Z,2.3
2023-03-08T06:07:11.927Z,2.3
2023-03-08T06:12:11.973Z,2.4
2023-03-08T06:17:11.922Z,2.4
2023-03-08T06:22:11.931Z,2.4
2023-03-08T06:27:11.916Z,2.4
2023-03-08T06:32:11.957Z,2.4
2023-03-08T06:37:12.006Z,2.4
2023-03-08T06:42:11.938Z,2.5
2023-03-08T06:47:11.931Z,2.5
2023-03-08T06:52:11.996Z,2.6
2023-03-08T06:57:11.934Z,2.7
2023-03-08T07:02:11.936Z,2.7
2023-03-08T07:07:11.968Z,2.7
2023-03-08T07:12:11.957Z,2.8
2023-03-08T07:17:11.911Z,2.8
2023-03-08T07:22:11.942Z,2.8
2023-03-08T07:27:11.908Z,2.8
2023-03-08T07:32:12.047Z,2.9
2023-03-08T07:37:11.905Z,2.9
2023-03-08T07:42:11.937Z,3
2023-03-08T07:47:11.916Z,3
2023-03-08T07:52:12.029Z,3.1
2023-03-08T07:57:11.913Z,3.2
2023-03-08T08:02:11.915Z,3.3
2023-03-08T08:07:11.913Z,3.4
2023-03-08T08:12:11.947Z,3.5
2023-03-08T08:17:11.953Z,3.6
2023-03-08T08:22:11.935Z,3.6
2023-03-08T08:27:13.754Z,3.6
2023-03-08T08:32:11.980Z,3.7
2023-03-08T08:37:11.942Z,3.7
2023-03-08T08:42:11.942Z,3.8
2023-03-08T08:47:11.912Z,3.8
2023-03-08T08:52:11.954Z,3.9
2023-03-08T08:57:11.919Z,3.9
2023-03-08T09:02:12.037Z,3.9
2023-03-08T09:07:11.925Z,3.9
2023-03-08T09:12:11.965Z,3.9
2023-03-08T09:17:11.922Z,4
2023-03-08T09:22:11.980Z,4.1
2023-03-08T09:27:11.934Z,4.2
2023-03-08T09:32:12.007Z,4.3
2023-03-08T09:37:11.928Z,4.5
2023-03-08T09:42:11.946Z,4.6
2023-03-08T09:47:11.934Z,4.6
2023-03-08T09:52:12.055Z,4.7
2023-03-08T09:57:11.953Z,4.7
2023-03-08T10:02:11.935Z,4.7
2023-03-08T10:07:11.948Z,4.8
2023-03-08T10:12:13.511Z,4.9
2023-03-08T10:17:11.914Z,4.9
2023-03-08T10:22:11.932Z,5
2023-03-08T10:27:12.006Z,5
2023-03-08T10:32:12.132Z,5.2
2023-03-08T10:37:11.957Z,5.2
2023-03-08T10:42:11.915Z,5.3
2023-03-08T10:47:11.897Z,5.3
2023-03-08T10:52:12.051Z,5.4
2023-03-08T10:57:11.918Z,5.5
2023-03-08T11:02:12.067Z,5.5
2023-03-08T11:07:12.185Z,5.6
2023-03-08T11:12:12.691Z,5.7
2023-03-08T11:17:11.908Z,5.8
2023-03-08T11:22:11.918Z,5.8
2023-03-08T11:27:12.100Z,5.8
2023-03-08T11:32:11.929Z,5.9
2023-03-08T11:37:11.891Z,5.9
2023-03-08T11:42:12.536Z,6
2023-03-08T11:47:11.904Z,6
2023-03-08T11:52:11.923Z,5.9
2023-03-08T11:57:11.901Z,5.9
2023-03-08T12:02:11.909Z,6
2023-03-08T12:07:11.962Z,6
2023-03-08T12:12:11.910Z,6
2023-03-08T12:17:12.029Z,6
2023-03-08T12:22:11.925Z,6
2023-03-08T12:27:11.874Z,6
2023-03-08T12:32:12.100Z,6
2023-03-08T12:37:11.913Z,6
2023-03-08T12:42:11.905Z,6
2023-03-08T12:47:11.873Z,6
2023-03-08T12:52:11.955Z,6
2023-03-08T12:57:11.880Z,6
2023-03-08T13:02:11.888Z,6
2023-03-08T13:07:11.864Z,6
2023-03-08T13:12:11.922Z,6.4
2023-03-08T13:17:11.855Z,6.3
2023-03-08T13:22:11.937Z,6.3
2023-03-08T13:27:11.847Z,6.3
2023-03-08T13:32:11.947Z,6.3
2023-03-08T13:37:11.847Z,6.3
2023-03-08T13:42:11.883Z,6.3
2023-03-08T13:47:11.842Z,6.3
2023-03-08T13:52:12.068Z,6.2
2023-03-08T13:57:11.946Z,6.1
2023-03-08T14:02:11.999Z,6.1
2023-03-08T14:07:11.835Z,6.1
2023-03-08T14:12:11.973Z,6.1
2023-03-08T14:17:11.875Z,6.1
2023-03-08T14:22:11.889Z,6.1
2023-03-08T14:27:11.841Z,6.1
2023-03-08T14:32:12.294Z,6.1
2023-03-08T14:37:11.872Z,6.1
2023-03-08T14:42:11.858Z,6.1
2023-03-08T14:47:11.848Z,6.1
2023-03-08T14:52:11.879Z,6.1
2023-03-08T14:57:11.826Z,5.9
2023-03-08T15:02:11.865Z,5.9
2023-03-08T15:07:11.831Z,5.9
2023-03-08T15:12:11.865Z,5.9
2023-03-08T15:17:11.836Z,5.9
2023-03-08T15:22:13.709Z,5.9
2023-03-08T15:27:11.829Z,5.9
2023-03-08T15:32:11.886Z,5.9
2023-03-08T15:37:11.858Z,5.9
2023-03-08T15:42:11.833Z,5.9
2023-03-08T15:47:11.813Z,5.9
2023-03-08T15:52:11.881Z,5.9
2023-03-08T15:57:11.821Z,5.9
2023-03-08T16:02:11.856Z,5.9
2023-03-08T16:07:11.818Z,5.9
2023-03-08T16:12:11.868Z,5.9
2023-03-08T16:17:11.840Z,5.9
2023-03-08T16:22:11.827Z,5.9
2023-03-08T16:27:11.830Z,5.9
2023-03-08T16:32:12.027Z,5.9
2023-03-08T16:37:11.824Z,5.9
2023-03-08T16:42:11.846Z,5.9
2023-03-08T16:47:11.861Z,5.9
2023-03-08T16:52:11.927Z,5.9
2023-03-08T16:57:18.450Z,5.9
2023-03-08T17:02:11.898Z,5.9
2023-03-08T17:07:11.836Z,5.9
2023-03-08T17:12:11.849Z,5.1
2023-03-08T17:17:11.810Z,5.1
2023-03-08T17:22:11.814Z,5.1
2023-03-08T17:27:11.823Z,5.1
2023-03-08T17:32:11.953Z,5.1
2023-03-08T17:37:11.814Z,5.1
2023-03-08T17:42:11.825Z,5.1
2023-03-08T17:47:11.809Z,4.9
2023-03-08T17:52:11.839Z,4.9
2023-03-08T17:57:11.827Z,4.9
2023-03-08T18:02:11.830Z,4.9
2023-03-08T18:07:11.810Z,4.8
2023-03-08T18:12:11.842Z,4.8
2023-03-08T18:17:11.828Z,4.8
2023-03-08T18:22:11.901Z,4.8
2023-03-08T18:27:11.894Z,4.7
2023-03-08T18:32:11.856Z,4.7
2023-03-08T18:37:11.784Z,4.7
2023-03-08T18:42:11.881Z,4.7
2023-03-08T18:47:11.833Z,4.7
2023-03-08T18:52:11.876Z,4.7
2023-03-08T18:57:11.886Z,4.7
2023-03-08T19:02:11.938Z,4.6
2023-03-08T19:07:11.792Z,4.7
2023-03-08T19:12:11.811Z,4.6
2023-03-08T19:17:11.795Z,4.7
2023-03-08T19:22:11.911Z,4.7
2023-03-08T19:27:13.666Z,4.6
2023-03-08T19:32:11.980Z,4.6
2023-03-08T19:37:11.795Z,4.6
2023-03-08T19:42:11.811Z,4.7
2023-03-08T19:47:11.791Z,4.7
2023-03-08T19:52:11.811Z,4.7
2023-03-08T19:57:11.801Z,4.7
2023-03-08T20:02:11.808Z,4.7
2023-03-08T20:07:11.799Z,4.6
2023-03-08T20:12:11.809Z,4.6
2023-03-08T20:17:11.829Z,4.6
2023-03-08T20:22:11.884Z,4.6
2023-03-08T20:27:11.788Z,4.6
2023-03-08T20:32:11.877Z,4.6
2023-03-08T20:37:11.808Z,4.6
2023-03-08T20:42:11.801Z,4.6
2023-03-08T20:47:11.787Z,4.7
2023-03-08T20:52:11.833Z,4.6
2023-03-08T20:57:11.813Z,4.6
2023-03-08T21:02:11.846Z,4.6
2023-03-08T21:07:11.781Z,4.5
2023-03-08T21:12:11.807Z,4.6
2023-03-08T21:17:12.043Z,4.5
2023-03-08T21:22:11.787Z,4.5
2023-03-08T21:27:11.816Z,4.7
2023-03-08T21:32:11.933Z,5.2
2023-03-08T21:37:11.765Z,5.7
2023-03-08T21:42:11.761Z,7.6
2023-03-08T21:47:11.785Z,8.9
2023-03-08T21:52:11.784Z,9.8
2023-03-08T21:57:11.752Z,10.5
2023-03-08T22:02:11.771Z,10.5
2023-03-08T22:07:11.786Z,14.6
2023-03-08T22:12:11.794Z,16
2023-03-08T22:17:11.764Z,16
2023-03-08T22:22:11.767Z,16
2023-03-08T22:27:11.763Z,15.5
2023-03-08T22:32:11.830Z,12.6
2023-03-08T22:37:11.765Z,10.6
2023-03-08T22:42:11.808Z,9.4
2023-03-08T22:47:11.749Z,8.7
2023-03-08T22:52:11.787Z,8.2
2023-03-08T22:57:11.752Z,7.9
2023-03-08T23:02:11.744Z,7.6
2023-03-08T23:07:11.750Z,7.4
2023-03-08T23:12:11.775Z,7.2
2023-03-08T23:17:11.809Z,7
2023-03-08T23:22:11.748Z,6.8
2023-03-08T23:27:11.752Z,6.7
2023-03-08T23:32:11.896Z,6.5
2023-03-08T23:37:11.732Z,6.4
2023-03-08T23:42:11.760Z,6.3
2023-03-08T23:47:11.752Z,6.2
2023-03-08T23:52:11.773Z,6.1
2023-03-08T23:57:11.730Z,6.1
